Time;durP1;ratioP1;P1;durP2;ratioP2;P2;SDS_P1;SDS_P2;PMS_P1;PMS_P2;Temp;Humidity;BMP_temperature;BMP_pressure;BME280_temperature;BME280_humidity;BME280_pressure;Samples;Min_cycle;Max_cycle;Signal;HPM_P1;HPM_P2
2022/06/30 00:00:51;;;;;;;0.10;0.10;;;17.40;99.90;;;;;;4990381;28;20645;-93
2022/06/30 00:03:17;;;;;;;0.10;0.10;;;17.40;99.90;;;;;;4989113;28;20193;-94
2022/06/30 00:05:43;;;;;;;0.10;0.10;;;17.30;99.90;;;;;;4974353;28;20926;-93
2022/06/30 00:08:08;;;;;;;0.10;0.10;;;17.30;99.90;;;;;;4977842;28;20196;-95
2022/06/30 00:10:34;;;;;;;0.10;0.10;;;17.30;99.90;;;;;;4990328;28;20181;-94
2022/06/30 00:12:59;;;;;;;0.10;0.10;;;17.20;99.90;;;;;;4990299;28;20231;-93
2022/06/30 00:15:25;;;;;;;0.10;0.10;;;17.10;99.90;;;;;;4988221;28;20209;-96
2022/06/30 00:17:51;;;;;;;0.10;0.10;;;17.20;99.90;;;;;;4976697;28;20234;-94
2022/06/30 00:20:19;;;;;;;0.10;0.10;;;17.20;99.90;;;;;;4976880;28;20984;-94
2022/06/30 00:22:44;;;;;;;0.10;0.10;;;17.10;99.90;;;;;;4977882;28;20277;-94
2022/06/30 00:25:09;;;;;;;0.10;0.10;;;17.00;99.90;;;;;;4977480;28;20444;-94
2022/06/30 00:27:35;;;;;;;0.10;0.10;;;17.00;99.90;;;;;;4999290;28;20212;-94
2022/06/30 00:30:01;;;;;;;0.10;0.10;;;17.00;99.90;;;;;;4991194;28;20201;-94
2022/06/30 00:32:27;;;;;;;0.10;0.10;;;16.90;99.90;;;;;;4996335;28;20203;-94
2022/06/30 00:34:52;;;;;;;0.10;0.10;;;16.90;99.90;;;;;;4991735;28;20284;-94
2022/06/30 00:37:18;;;;;;;0.10;0.10;;;16.90;99.90;;;;;;4998736;28;20491;-93
2022/06/30 00:39:43;;;;;;;0.10;0.10;;;16.90;99.90;;;;;;4976472;28;20557;-95
2022/06/30 00:42:09;;;;;;;0.10;0.10;;;16.80;99.90;;;;;;4978879;28;20267;-93
2022/06/30 00:44:35;;;;;;;0.10;0.10;;;16.80;99.90;;;;;;4981477;28;20645;-94
2022/06/30 00:47:00;;;;;;;0.10;0.10;;;16.80;99.90;;;;;;4978084;28;20197;-94
2022/06/30 00:49:27;;;;;;;0.10;0.10;;;16.90;99.90;;;;;;4991218;28;20221;-92
2022/06/30 00:51:53;;;;;;;0.10;0.10;;;16.90;99.90;;;;;;4994838;28;20186;-93
2022/06/30 00:54:22;;;;;;;0.10;0.10;;;16.80;99.90;;;;;;4993426;28;20515;-94
2022/06/30 00:56:49;;;;;;;0.10;0.10;;;16.70;99.90;;;;;;4978104;28;20237;-94
2022/06/30 00:59:16;;;;;;;0.10;0.10;;;16.80;99.90;;;;;;4974843;28;20488;-93
2022/06/30 01:01:44;;;;;;;0.10;0.10;;;16.80;99.90;;;;;;4974611;28;20460;-95
2022/06/30 01:04:13;;;;;;;0.10;0.10;;;16.80;99.90;;;;;;4990533;28;20470;-95
2022/06/30 01:06:39;;;;;;;0.10;0.10;;;16.80;99.90;;;;;;4994671;28;20490;-93
2022/06/30 01:09:04;;;;;;;0.10;0.10;;;16.80;99.90;;;;;;4978060;28;20443;-93
2022/06/30 01:14:15;;;;;;;0.10;0.10;;;16.60;99.90;;;;;;4996052;28;20196;-94
2022/06/30 01:16:41;;;;;;;0.10;0.10;;;16.60;99.90;;;;;;4974482;28;20480;-94
2022/06/30 01:19:07;;;;;;;0.10;0.10;;;16.70;99.90;;;;;;4990524;28;20443;-93
2022/06/30 01:21:32;;;;;;;0.10;0.10;;;16.60;99.90;;;;;;4992689;28;20185;-93
2022/06/30 01:23:58;;;;;;;0.10;0.10;;;16.60;99.90;;;;;;4992976;28;21348;-93
2022/06/30 01:26:24;;;;;;;0.10;0.10;;;16.70;99.90;;;;;;4973648;28;20257;-93
2022/06/30 01:28:51;;;;;;;0.10;0.10;;;16.80;99.90;;;;;;4989967;28;20206;-95
2022/06/30 01:31:17;;;;;;;0.10;0.10;;;16.90;99.90;;;;;;4968925;28;20464;-94
2022/06/30 01:33:43;;;;;;;0.10;0.10;;;16.80;99.90;;;;;;4986953;28;20866;-94
2022/06/30 01:36:09;;;;;;;0.10;0.10;;;16.90;99.90;;;;;;4985510;28;20475;-94
2022/06/30 01:38:34;;;;;;;0.10;0.00;;;16.90;99.90;;;;;;4976721;28;20531;-93
2022/06/30 01:41:00;;;;;;;0.10;0.10;;;16.90;99.90;;;;;;4984483;28;20230;-92
2022/06/30 01:43:25;;;;;;;0.10;0.10;;;16.90;99.90;;;;;;4987927;28;20189;-92
2022/06/30 01:45:51;;;;;;;0.10;0.10;;;16.90;99.90;;;;;;4974245;28;20190;-93
2022/06/30 01:48:16;;;;;;;0.10;0.10;;;16.80;99.90;;;;;;4977106;28;20201;-93
2022/06/30 01:50:42;;;;;;;0.10;0.10;;;16.90;99.90;;;;;;4975506;28;20677;-94
2022/06/30 01:53:07;;;;;;;0.10;0.10;;;16.80;99.90;;;;;;4987157;28;20922;-93
2022/06/30 01:55:33;;;;;;;0.10;0.10;;;16.80;99.90;;;;;;4981070;28;20304;-93
2022/06/30 01:57:59;;;;;;;0.10;0.10;;;16.80;99.90;;;;;;4976363;28;20216;-93
2022/06/30 02:00:26;;;;;;;0.10;0.10;;;16.80;99.90;;;;;;4992495;28;20573;-94
2022/06/30 02:02:53;;;;;;;0.10;0.10;;;16.70;99.90;;;;;;4992393;28;20561;-93
2022/06/30 02:05:19;;;;;;;0.10;0.10;;;16.70;99.90;;;;;;4990616;28;20518;-92
2022/06/30 02:07:45;;;;;;;0.10;0.10;;;16.50;99.90;;;;;;4991732;28;20866;-93
2022/06/30 02:10:15;;;;;;;0.10;0.10;;;16.60;99.90;;;;;;4996352;28;20472;-91
2022/06/30 02:12:47;;;;;;;0.10;0.10;;;16.50;99.90;;;;;;4972612;28;20452;-91
2022/06/30 02:15:18;;;;;;;0.10;0.10;;;16.40;99.90;;;;;;4974659;28;20451;-91
2022/06/30 02:17:45;;;;;;;0.10;0.10;;;16.30;99.90;;;;;;4988404;28;20494;-92
2022/06/30 02:20:11;;;;;;;0.10;0.10;;;16.30;99.90;;;;;;4992074;28;20510;-91
2022/06/30 02:22:39;;;;;;;0.10;0.10;;;16.30;99.90;;;;;;4982153;28;20456;-92
2022/06/30 02:25:06;;;;;;;0.10;0.10;;;16.30;99.90;;;;;;4976293;28;20428;-91
2022/06/30 02:27:32;;;;;;;0.10;0.10;;;16.30;99.90;;;;;;4990638;28;20956;-92
2022/06/30 02:29:58;;;;;;;0.10;0.10;;;16.20;99.90;;;;;;4971235;28;20803;-93
2022/06/30 02:32:23;;;;;;;0.10;0.10;;;16.30;99.90;;;;;;4991259;28;20486;-93
2022/06/30 02:34:50;;;;;;;0.10;0.10;;;16.20;99.90;;;;;;4994887;28;20838;-92
2022/06/30 02:37:16;;;;;;;0.10;0.10;;;16.10;99.90;;;;;;4991266;28;20228;-93
2022/06/30 02:39:42;;;;;;;0.10;0.10;;;16.00;99.90;;;;;;4974152;28;20444;-92
2022/06/30 02:42:08;;;;;;;0.10;0.10;;;16.00;99.90;;;;;;4968468;28;20457;-92
2022/06/30 02:44:34;;;;;;;0.10;0.10;;;15.90;99.90;;;;;;4984332;28;20698;-93
2022/06/30 02:47:00;;;;;;;0.10;0.10;;;15.90;99.90;;;;;;4993209;28;20914;-93
2022/06/30 02:49:25;;;;;;;0.10;0.10;;;16.00;99.90;;;;;;4967192;28;20449;-94
2022/06/30 02:51:51;;;;;;;0.10;0.10;;;16.00;99.90;;;;;;4987653;28;20272;-92
2022/06/30 02:54:17;;;;;;;0.10;0.10;;;15.90;99.90;;;;;;4988503;28;20653;-92
2022/06/30 02:56:43;;;;;;;0.10;0.10;;;16.00;99.90;;;;;;4964229;28;20560;-93
2022/06/30 02:59:08;;;;;;;0.10;0.10;;;16.00;99.90;;;;;;4970563;28;20586;-92
2022/06/30 03:01:34;;;;;;;0.10;0.10;;;16.00;99.90;;;;;;4991875;28;20940;-91
2022/06/30 03:04:01;;;;;;;0.10;0.10;;;16.00;99.90;;;;;;4991132;28;20193;-92
2022/06/30 03:06:28;;;;;;;0.10;0.10;;;15.90;99.90;;;;;;4986861;28;20428;-92
2022/06/30 03:08:55;;;;;;;0.10;0.10;;;15.90;99.90;;;;;;4971599;28;20507;-92
2022/06/30 03:11:21;;;;;;;0.10;0.10;;;16.00;99.90;;;;;;4988105;28;20436;-92
2022/06/30 03:13:47;;;;;;;0.10;0.10;;;16.00;99.90;;;;;;4967832;28;20986;-92
2022/06/30 03:16:12;;;;;;;0.10;0.10;;;15.90;99.90;;;;;;4989253;28;20840;-93
2022/06/30 03:18:39;;;;;;;0.10;0.10;;;15.90;99.90;;;;;;4971306;28;20220;-93
2022/06/30 03:21:05;;;;;;;0.10;0.10;;;15.90;99.90;;;;;;4969371;28;20213;-92
2022/06/30 03:23:31;;;;;;;0.10;0.10;;;16.00;99.90;;;;;;4968450;28;20487;-93
2022/06/30 03:25:56;;;;;;;0.10;0.10;;;15.90;99.90;;;;;;4969128;28;20196;-92
2022/06/30 03:28:22;;;;;;;0.10;0.10;;;16.00;99.90;;;;;;4984601;28;20265;-91
2022/06/30 03:30:47;;;;;;;0.10;0.10;;;15.90;99.90;;;;;;4970854;28;20196;-92
2022/06/30 03:33:17;;;;;;;0.10;0.10;;;16.00;99.90;;;;;;4989225;28;20182;-92
2022/06/30 03:35:43;;;;;;;0.10;0.10;;;15.90;99.90;;;;;;4988062;28;20236;-90
2022/06/30 03:38:08;;;;;;;0.10;0.10;;;16.00;99.90;;;;;;4988882;28;20563;-91
2022/06/30 03:40:34;;;;;;;0.10;0.10;;;16.00;99.90;;;;;;4972222;28;20527;-92
2022/06/30 03:43:00;;;;;;;0.10;0.10;;;16.10;99.90;;;;;;4974171;28;20193;-93
2022/06/30 03:45:26;;;;;;;0.10;0.10;;;16.20;99.90;;;;;;4982387;28;21910;-93
2022/06/30 03:47:52;;;;;;;0.10;0.10;;;16.10;99.90;;;;;;4973523;28;20452;-92
2022/06/30 03:50:18;;;;;;;0.10;0.10;;;16.30;99.90;;;;;;4971849;28;20440;-92
2022/06/30 03:52:43;;;;;;;0.10;0.10;;;16.40;99.90;;;;;;4979655;28;20189;-91
2022/06/30 03:55:10;;;;;;;0.10;0.10;;;16.50;99.90;;;;;;4993474;28;20271;-90
2022/06/30 03:57:36;;;;;;;0.10;0.10;;;16.60;99.90;;;;;;4984632;28;20295;-92
2022/06/30 04:00:03;;;;;;;0.10;0.10;;;16.60;99.90;;;;;;4985878;28;20941;-92
2022/06/30 04:02:28;;;;;;;0.10;0.10;;;16.70;99.90;;;;;;4970710;28;20204;-92
2022/06/30 04:04:54;;;;;;;0.10;0.10;;;16.80;99.90;;;;;;4988230;28;20452;-92
2022/06/30 04:07:19;;;;;;;0.10;0.10;;;16.80;99.90;;;;;;4989218;28;20239;-91
2022/06/30 04:09:45;;;;;;;0.10;0.10;;;16.90;99.90;;;;;;4989149;28;20352;-91
2022/06/30 04:12:11;;;;;;;0.10;0.10;;;16.90;99.90;;;;;;4989980;28;20193;-91
2022/06/30 04:14:36;;;;;;;0.10;0.10;;;17.00;99.90;;;;;;4989506;28;20189;-92
2022/06/30 04:17:02;;;;;;;0.10;0.10;;;17.00;99.90;;;;;;4970729;28;20488;-93
2022/06/30 04:19:28;;;;;;;0.10;0.10;;;17.00;99.90;;;;;;4970496;28;20200;-91
2022/06/30 04:21:54;;;;;;;0.10;0.10;;;17.10;99.90;;;;;;4970426;28;20711;-92
2022/06/30 04:24:19;;;;;;;0.10;0.10;;;17.20;99.90;;;;;;4967655;28;20436;-90
2022/06/30 04:26:45;;;;;;;0.10;0.10;;;17.20;99.90;;;;;;4972966;28;20775;-93
2022/06/30 04:29:10;;;;;;;0.10;0.10;;;17.20;99.90;;;;;;4989921;28;20597;-91
2022/06/30 04:34:21;;;;;;;0.10;0.10;;;17.30;99.90;;;;;;4990328;28;20232;-92
2022/06/30 04:36:47;;;;;;;0.10;0.10;;;17.40;99.90;;;;;;4970439;28;20478;-92
2022/06/30 04:39:12;;;;;;;0.10;0.10;;;17.40;99.90;;;;;;4987409;28;20448;-92
2022/06/30 04:41:38;;;;;;;0.10;0.10;;;17.50;99.90;;;;;;4988320;28;20616;-91
2022/06/30 04:44:05;;;;;;;0.10;0.10;;;17.40;99.90;;;;;;4970488;28;20197;-91
2022/06/30 04:46:30;;;;;;;0.10;0.10;;;17.50;99.90;;;;;;4982107;28;20185;-93
2022/06/30 04:48:56;;;;;;;0.10;0.10;;;17.50;99.90;;;;;;4970785;28;20458;-88
2022/06/30 04:51:22;;;;;;;0.10;0.10;;;17.60;99.90;;;;;;4989390;28;20185;-89
2022/06/30 04:53:48;;;;;;;0.10;0.10;;;17.60;99.90;;;;;;4963445;28;20189;-90
2022/06/30 04:56:14;;;;;;;0.10;0.07;;;17.70;99.90;;;;;;4971221;28;20189;-87
2022/06/30 04:58:40;;;;;;;0.10;0.10;;;17.70;99.90;;;;;;4985472;28;20243;-89
2022/06/30 05:01:06;;;;;;;0.10;0.10;;;17.80;99.90;;;;;;4984317;28;20842;-90
2022/06/30 05:03:32;;;;;;;0.10;0.10;;;17.80;99.90;;;;;;4981291;28;20216;-88
2022/06/30 05:05:59;;;;;;;0.10;0.10;;;17.90;99.90;;;;;;4986743;28;20193;-88
2022/06/30 05:08:25;;;;;;;0.10;0.10;;;17.90;99.90;;;;;;4973198;28;20870;-90
2022/06/30 05:10:51;;;;;;;0.10;0.10;;;18.00;99.90;;;;;;4988956;28;20450;-86
2022/06/30 05:13:16;;;;;;;0.10;0.10;;;18.00;99.90;;;;;;5001491;28;20443;-89
2022/06/30 05:15:45;;;;;;;0.10;0.10;;;18.10;99.90;;;;;;4972782;28;20186;-89
2022/06/30 05:18:11;;;;;;;0.10;0.10;;;18.20;99.90;;;;;;4968574;28;20221;-90
2022/06/30 05:20:37;;;;;;;0.10;0.10;;;18.20;99.90;;;;;;4974253;28;20440;-91
2022/06/30 05:23:02;;;;;;;0.10;0.10;;;18.30;99.90;;;;;;4991863;28;20479;-88
2022/06/30 05:28:13;;;;;;;0.10;0.10;;;18.40;99.90;;;;;;4992526;28;20712;-88
2022/06/30 05:30:39;;;;;;;0.10;0.10;;;18.50;99.90;;;;;;4969083;28;20452;-90
2022/06/30 05:33:05;;;;;;;0.10;0.10;;;18.60;99.90;;;;;;4987803;28;20189;-90
2022/06/30 05:35:30;;;;;;;0.10;0.07;;;18.70;99.90;;;;;;4993294;28;20477;-88
2022/06/30 05:37:56;;;;;;;0.10;0.10;;;18.80;99.90;;;;;;4992564;28;20229;-94
2022/06/30 05:40:22;;;;;;;0.10;0.10;;;18.90;99.90;;;;;;4974079;28;20699;-90
2022/06/30 05:42:47;;;;;;;0.10;0.00;;;18.90;99.90;;;;;;4975489;28;20272;-90
2022/06/30 05:45:13;;;;;;;0.10;0.00;;;19.00;99.90;;;;;;4998323;28;20198;-89
2022/06/30 05:47:52;;;;;;;0.10;0.00;;;19.10;99.90;;;;;;4977566;28;20221;-88
2022/06/30 05:50:20;;;;;;;0.10;0.00;;;19.10;99.90;;;;;;4973258;28;20184;-91
2022/06/30 05:52:46;;;;;;;0.10;0.00;;;19.10;99.90;;;;;;4990195;28;20532;-88
2022/06/30 05:55:12;;;;;;;0.10;0.10;;;19.20;99.90;;;;;;4991569;28;20439;-90
2022/06/30 05:57:56;;;;;;;0.10;0.10;;;19.20;99.90;;;;;;4989678;28;20578;-89
2022/06/30 06:00:23;;;;;;;0.10;0.00;;;19.30;99.90;;;;;;4991159;28;20193;-90
2022/06/30 06:02:49;;;;;;;0.10;0.00;;;19.40;99.90;;;;;;4989198;28;20460;-87
2022/06/30 06:05:15;;;;;;;0.10;0.00;;;19.50;99.90;;;;;;4992978;28;20427;-93
2022/06/30 06:07:41;;;;;;;0.10;0.10;;;19.60;99.90;;;;;;4994497;28;20649;-86
2022/06/30 06:10:07;;;;;;;0.10;0.10;;;19.70;99.90;;;;;;4975051;28;20498;-91
2022/06/30 06:12:33;;;;;;;0.10;0.10;;;19.60;99.90;;;;;;4970147;28;20190;-88
2022/06/30 06:14:58;;;;;;;0.10;0.00;;;19.80;99.90;;;;;;4989965;28;20463;-92
2022/06/30 06:17:24;;;;;;;0.10;0.10;;;19.90;99.90;;;;;;4988793;28;20224;-94
2022/06/30 06:19:49;;;;;;;0.10;0.00;;;20.00;99.90;;;;;;4985674;28;20203;-88
2022/06/30 06:22:15;;;;;;;0.10;0.10;;;20.10;99.90;;;;;;4989401;28;20193;-90
2022/06/30 06:24:40;;;;;;;0.10;0.00;;;20.10;99.90;;;;;;4973293;28;20243;-88
2022/06/30 06:27:06;;;;;;;0.10;0.00;;;20.30;99.90;;;;;;4973236;28;20281;-89
2022/06/30 06:29:32;;;;;;;0.10;0.00;;;20.40;99.90;;;;;;4985627;28;20193;-88
2022/06/30 06:31:57;;;;;;;0.10;0.00;;;20.40;99.90;;;;;;4990856;28;20596;-88
2022/06/30 06:34:23;;;;;;;0.10;0.00;;;20.50;99.90;;;;;;4988247;28;20236;-87
2022/06/30 06:36:48;;;;;;;0.10;0.00;;;20.50;99.90;;;;;;5002859;28;20298;-85
2022/06/30 06:39:14;;;;;;;0.10;0.00;;;20.60;99.90;;;;;;4986072;28;20689;-85
2022/06/30 06:41:39;;;;;;;0.10;0.00;;;20.70;99.90;;;;;;4972079;28;20616;-86
2022/06/30 06:44:06;;;;;;;0.10;0.00;;;20.70;99.90;;;;;;4982005;28;20193;-86
2022/06/30 06:46:32;;;;;;;0.10;0.10;;;20.80;99.90;;;;;;4973262;28;20225;-87
2022/06/30 06:49:03;;;;;;;0.10;0.00;;;20.70;99.90;;;;;;4986555;28;20452;-87
2022/06/30 06:51:28;;;;;;;0.10;0.00;;;20.70;99.90;;;;;;4977640;28;20945;-88
2022/06/30 06:53:55;;;;;;;0.10;0.00;;;20.80;99.90;;;;;;4971112;28;20448;-87
2022/06/30 06:56:21;;;;;;;0.10;0.00;;;20.70;99.90;;;;;;4969923;28;20582;-88
2022/06/30 06:58:47;;;;;;;0.10;0.00;;;20.80;99.90;;;;;;4976999;28;20443;-87
2022/06/30 07:01:13;;;;;;;0.10;0.00;;;20.50;99.90;;;;;;4992351;28;20560;-87
2022/06/30 07:03:39;;;;;;;0.10;0.00;;;20.30;99.90;;;;;;4987732;28;20452;-87
2022/06/30 07:06:05;;;;;;;0.10;0.00;;;20.00;99.90;;;;;;4998125;28;20443;-86
2022/06/30 07:08:30;;;;;;;0.10;0.10;;;20.00;99.90;;;;;;4977876;28;20308;-85
2022/06/30 07:10:57;;;;;;;0.10;0.00;;;19.80;99.90;;;;;;4985118;28;20189;-90
2022/06/30 07:13:23;;;;;;;0.10;0.00;;;19.70;99.90;;;;;;4969150;28;20554;-86
2022/06/30 07:15:49;;;;;;;0.10;0.10;;;19.80;99.90;;;;;;4974322;28;20432;-84
2022/06/30 07:18:14;;;;;;;0.10;0.00;;;19.80;99.90;;;;;;4972342;28;20522;-88
2022/06/30 07:20:40;;;;;;;0.10;0.00;;;19.80;99.90;;;;;;4971086;28;20188;-85
2022/06/30 07:23:05;;;;;;;0.10;0.00;;;19.80;99.90;;;;;;4986021;28;20196;-85
2022/06/30 07:25:31;;;;;;;0.10;0.00;;;19.90;99.90;;;;;;4968769;28;20235;-87
2022/06/30 07:27:56;;;;;;;0.10;0.00;;;19.90;99.90;;;;;;4989083;28;21970;-86
2022/06/30 07:30:22;;;;;;;0.10;0.10;;;20.10;99.90;;;;;;4985448;28;20196;-88
2022/06/30 07:32:48;;;;;;;0.10;0.00;;;20.20;99.90;;;;;;4972672;28;20275;-89
2022/06/30 07:35:14;;;;;;;0.10;0.10;;;20.30;99.90;;;;;;4969503;28;20228;-86
2022/06/30 07:37:40;;;;;;;0.10;0.00;;;20.40;99.90;;;;;;4998871;28;20229;-85
2022/06/30 07:40:07;;;;;;;0.10;0.00;;;20.60;99.90;;;;;;4982550;28;20476;-88
2022/06/30 07:42:33;;;;;;;0.10;0.00;;;20.60;99.90;;;;;;4973608;28;20216;-88
2022/06/30 07:44:58;;;;;;;0.10;0.00;;;20.70;99.90;;;;;;4969482;28;20519;-87
2022/06/30 07:47:25;;;;;;;0.10;0.00;;;20.80;99.90;;;;;;4987797;28;20452;-87
2022/06/30 07:49:51;;;;;;;0.10;0.00;;;21.00;99.90;;;;;;4972472;28;20280;-86
2022/06/30 07:52:16;;;;;;;0.10;0.00;;;21.00;99.90;;;;;;4967669;28;20547;-86
2022/06/30 07:54:42;;;;;;;0.10;0.00;;;21.30;99.90;;;;;;4986291;28;20185;-86
2022/06/30 07:57:07;;;;;;;0.10;0.00;;;21.50;99.90;;;;;;4979457;28;20221;-85
2022/06/30 07:59:33;;;;;;;0.10;0.00;;;21.50;99.90;;;;;;4987712;28;20196;-86
2022/06/30 08:02:00;;;;;;;0.10;0.00;;;21.60;99.90;;;;;;4967651;28;20189;-86
2022/06/30 08:04:26;;;;;;;0.10;0.00;;;21.90;99.90;;;;;;4988335;28;20188;-86
2022/06/30 08:06:51;;;;;;;0.10;0.00;;;21.90;99.90;;;;;;4988334;28;20455;-86
2022/06/30 08:09:18;;;;;;;0.10;0.00;;;22.00;99.90;;;;;;4998857;28;20528;-84
2022/06/30 08:11:44;;;;;;;0.10;0.00;;;22.20;99.90;;;;;;4997324;28;20216;-83
2022/06/30 08:14:09;;;;;;;0.10;0.00;;;22.10;99.90;;;;;;4999145;28;20479;-84
2022/06/30 08:16:35;;;;;;;0.10;0.00;;;22.10;99.90;;;;;;5003395;28;20247;-83
2022/06/30 08:19:01;;;;;;;0.10;0.00;;;22.20;99.90;;;;;;4990865;28;20209;-83
2022/06/30 08:21:26;;;;;;;0.10;0.00;;;22.40;99.90;;;;;;4981397;28;20224;-84
2022/06/30 08:23:52;;;;;;;0.10;0.00;;;22.70;99.90;;;;;;4988177;28;20211;-84
2022/06/30 08:26:17;;;;;;;0.10;0.00;;;23.00;99.90;;;;;;4994104;28;20193;-84
2022/06/30 08:28:43;;;;;;;0.10;0.00;;;22.70;99.90;;;;;;4986874;28;20685;-84
2022/06/30 08:31:08;;;;;;;0.10;0.00;;;22.70;99.90;;;;;;4985290;28;20185;-85
2022/06/30 08:33:34;;;;;;;0.10;0.00;;;22.70;99.90;;;;;;4987177;28;20208;-82
2022/06/30 08:36:00;;;;;;;0.10;0.00;;;22.70;99.90;;;;;;4961284;28;20224;-83
2022/06/30 08:38:26;;;;;;;0.10;0.00;;;22.60;99.90;;;;;;4981241;28;20220;-84
2022/06/30 08:43:36;;;;;;;0.10;0.00;;;22.80;99.90;;;;;;4990900;28;20486;-83
2022/06/30 08:46:05;;;;;;;0.10;0.00;;;22.80;99.90;;;;;;4989597;28;20459;-81
2022/06/30 08:48:31;;;;;;;0.10;0.00;;;23.00;99.90;;;;;;4956946;28;20178;-82
2022/06/30 08:51:04;;;;;;;0.10;0.00;;;23.30;99.90;;;;;;4985063;28;20439;-81
2022/06/30 08:53:37;;;;;;;0.10;0.00;;;23.40;99.90;;;;;;4986731;28;20248;-82
2022/06/30 08:56:04;;;;;;;0.10;0.00;;;23.50;99.90;;;;;;4973323;28;20870;-83
2022/06/30 08:58:30;;;;;;;0.10;0.00;;;23.50;99.90;;;;;;4981663;28;20480;-82
2022/06/30 09:00:55;;;;;;;0.10;0.00;;;23.60;99.90;;;;;;4976399;28;20447;-83
2022/06/30 09:03:21;;;;;;;0.10;0.00;;;23.80;99.90;;;;;;4985998;28;20221;-83
2022/06/30 09:05:47;;;;;;;0.10;0.00;;;24.10;99.90;;;;;;4999928;28;20197;-82
2022/06/30 09:08:13;;;;;;;0.10;0.00;;;24.20;99.90;;;;;;4989226;28;20264;-81
2022/06/30 09:10:50;;;;;;;0.10;0.00;;;24.10;99.90;;;;;;4991700;28;20320;-83
2022/06/30 09:13:16;;;;;;;0.10;0.00;;;24.50;99.90;;;;;;4989679;28;20455;-83
2022/06/30 09:15:41;;;;;;;0.10;0.00;;;24.90;99.90;;;;;;4994182;28;20475;-83
2022/06/30 09:18:07;;;;;;;0.10;0.00;;;25.10;99.90;;;;;;4991412;28;20515;-83
2022/06/30 09:20:35;;;;;;;0.10;0.00;;;25.00;99.90;;;;;;4993530;28;20684;-82
2022/06/30 09:23:17;;;;;;;0.10;0.00;;;25.10;99.90;;;;;;4998724;28;20197;-83
2022/06/30 09:25:45;;;;;;;0.10;0.00;;;25.30;99.90;;;;;;4984960;28;20503;-83
2022/06/30 09:28:10;;;;;;;0.10;0.00;;;25.40;99.90;;;;;;4988225;28;20522;-81
2022/06/30 09:30:36;;;;;;;0.10;0.00;;;25.60;99.90;;;;;;4992838;28;20444;-83
2022/06/30 09:33:09;;;;;;;0.10;0.00;;;25.90;99.90;;;;;;4990238;28;20247;-82
2022/06/30 09:35:38;;;;;;;0.10;0.00;;;25.90;99.90;;;;;;4989725;28;20236;-83
2022/06/30 09:38:09;;;;;;;0.10;0.00;;;25.50;99.90;;;;;;4983978;28;20488;-83
2022/06/30 09:43:31;;;;;;;0.10;0.00;;;26.10;99.90;;;;;;4991005;28;20538;-82
2022/06/30 09:45:57;;;;;;;0.10;0.00;;;25.90;99.90;;;;;;4976476;28;21011;-80
2022/06/30 09:48:27;;;;;;;0.10;0.00;;;26.30;99.90;;;;;;4969941;28;20455;-83
2022/06/30 09:50:59;;;;;;;0.10;0.00;;;26.00;99.90;;;;;;4992604;28;20543;-82
2022/06/30 09:53:25;;;;;;;0.10;0.00;;;26.10;99.90;;;;;;4971552;28;20452;-83
2022/06/30 09:55:50;;;;;;;0.10;0.00;;;26.30;99.90;;;;;;4990838;28;20451;-81
2022/06/30 09:58:35;;;;;;;0.10;0.00;;;26.60;99.90;;;;;;4974211;28;20252;-83
2022/06/30 10:01:01;;;;;;;0.10;0.00;;;26.70;99.90;;;;;;4955640;28;20212;-82
2022/06/30 10:03:27;;;;;;;0.10;0.00;;;27.00;99.90;;;;;;4994828;28;20674;-83
2022/06/30 10:06:11;;;;;;;0.10;0.00;;;27.00;99.90;;;;;;4988155;28;20452;-82
2022/06/30 10:08:37;;;;;;;0.10;0.00;;;27.40;99.90;;;;;;4968048;28;20447;-83
2022/06/30 10:11:03;;;;;;;0.10;0.00;;;27.20;99.90;;;;;;4990114;28;20952;-83
2022/06/30 10:13:33;;;;;;;0.10;0.00;;;27.30;99.90;;;;;;4986737;28;20459;-82
2022/06/30 10:16:02;;;;;;;0.10;0.00;;;27.50;99.90;;;;;;4979723;28;20419;-82
2022/06/30 10:18:28;;;;;;;0.10;0.00;;;27.20;99.90;;;;;;4987580;28;20610;-84
2022/06/30 10:20:55;;;;;;;0.10;0.00;;;27.30;99.90;;;;;;4988794;28;20451;-78
2022/06/30 10:23:22;;;;;;;0.10;0.00;;;26.80;99.90;;;;;;4982795;28;20456;-80
2022/06/30 10:25:49;;;;;;;0.10;0.00;;;26.80;99.90;;;;;;4983882;28;20807;-80
2022/06/30 10:28:19;;;;;;;0.10;0.00;;;27.00;99.90;;;;;;4986052;28;20448;-81
2022/06/30 10:30:48;;;;;;;0.10;0.00;;;27.50;99.90;;;;;;4984466;28;20527;-81
2022/06/30 10:33:22;;;;;;;0.10;0.00;;;27.50;99.90;;;;;;4975860;28;20578;-80
2022/06/30 10:36:10;;;;;;;0.10;0.00;;;27.70;99.90;;;;;;4995350;28;20570;-80
2022/06/30 10:39:02;;;;;;;0.10;0.00;;;28.40;99.90;;;;;;4979287;28;20532;-84
2022/06/30 10:41:27;;;;;;;0.10;0.00;;;29.10;99.90;;;;;;4981859;28;20472;-81
2022/06/30 10:44:05;;;;;;;0.10;0.00;;;28.80;99.90;;;;;;4989338;28;20483;-83
2022/06/30 10:46:32;;;;;;;0.10;0.00;;;28.80;99.90;;;;;;4987632;28;20192;-81
2022/06/30 10:48:58;;;;;;;0.10;0.00;;;29.20;99.90;;;;;;4989567;28;20455;-81
2022/06/30 10:51:25;;;;;;;0.10;0.00;;;28.70;99.90;;;;;;4973630;28;20475;-81
2022/06/30 10:53:55;;;;;;;0.10;0.00;;;28.80;99.90;;;;;;4967473;28;20193;-82
2022/06/30 10:56:23;;;;;;;0.10;0.00;;;29.00;99.90;;;;;;4996985;28;20443;-83
2022/06/30 10:59:06;;;;;;;0.10;0.00;;;29.60;99.90;;;;;;4976208;28;20488;-81
2022/06/30 11:01:32;;;;;;;0.10;0.00;;;29.60;99.90;;;;;;4969912;28;20595;-81
2022/06/30 11:03:58;;;;;;;0.10;0.00;;;30.00;99.90;;;;;;4968343;28;20548;-82
2022/06/30 11:06:26;;;;;;;0.10;0.00;;;29.80;99.90;;;;;;4983546;28;20290;-81
2022/06/30 11:08:57;;;;;;;0.10;0.00;;;30.00;99.90;;;;;;4985966;28;20952;-82
2022/06/30 11:11:23;;;;;;;0.10;0.00;;;29.60;99.90;;;;;;4988987;28;20443;-79
2022/06/30 11:14:03;;;;;;;0.10;0.00;;;30.00;99.90;;;;;;4989701;28;20439;-82
2022/06/30 11:16:31;;;;;;;0.10;0.10;;;30.40;99.90;;;;;;4986503;28;20247;-82
2022/06/30 11:18:56;;;;;;;0.10;0.00;;;30.70;99.90;;;;;;4988561;28;20462;-82
2022/06/30 11:21:22;;;;;;;0.10;0.00;;;30.80;99.90;;;;;;4993134;28;20447;-83
2022/06/30 11:23:49;;;;;;;0.10;0.00;;;30.80;99.90;;;;;;4988119;28;20248;-80
2022/06/30 11:29:02;;;;;;;0.10;0.00;;;31.30;99.90;;;;;;4987640;28;20498;-79
2022/06/30 11:31:31;;;;;;;0.00;0.00;;;30.90;99.90;;;;;;4988607;28;20882;-82
2022/06/30 11:34:03;;;;;;;0.00;0.00;;;30.90;99.90;;;;;;4988406;28;20535;-81
2022/06/30 11:36:29;;;;;;;0.10;0.00;;;31.40;99.90;;;;;;4981678;28;20455;-81
2022/06/30 11:39:00;;;;;;;0.10;0.00;;;31.70;99.90;;;;;;4991393;28;20501;-78
2022/06/30 11:44:12;;;;;;;0.10;0.00;;;30.70;99.90;;;;;;4978298;28;20463;-78
2022/06/30 11:46:49;;;;;;;0.10;0.00;;;30.50;99.90;;;;;;4983832;28;20811;-78
2022/06/30 11:49:15;;;;;;;0.10;0.00;;;30.40;99.90;;;;;;4989899;28;20277;-78
2022/06/30 11:51:41;;;;;;;0.10;0.00;;;30.80;99.90;;;;;;4985571;28;20547;-78
2022/06/30 11:54:09;;;;;;;0.10;0.00;;;30.70;99.90;;;;;;4965928;28;20444;-79
2022/06/30 11:56:53;;;;;;;0.10;0.00;;;31.20;99.90;;;;;;4983368;28;20482;-77
2022/06/30 11:59:19;;;;;;;0.10;0.00;;;31.10;99.90;;;;;;4984653;28;20458;-77
2022/06/30 12:02:01;;;;;;;0.07;0.00;;;31.50;99.90;;;;;;4984621;28;20432;-80
2022/06/30 12:04:27;;;;;;;0.10;0.00;;;31.80;99.90;;;;;;4971910;28;20448;-80
2022/06/30 12:06:53;;;;;;;0.07;0.00;;;31.80;99.90;;;;;;4968114;28;20494;-79
2022/06/30 12:09:18;;;;;;;0.10;0.00;;;32.00;99.90;;;;;;4987518;28;21151;-79
2022/06/30 12:11:45;;;;;;;0.10;0.00;;;31.70;99.90;;;;;;4992421;28;20209;-80
2022/06/30 12:14:11;;;;;;;0.10;0.00;;;31.20;99.90;;;;;;4970742;28;20201;-81
2022/06/30 12:16:36;;;;;;;0.10;0.00;;;31.20;99.90;;;;;;4979217;28;20445;-80
2022/06/30 12:19:02;;;;;;;0.10;0.00;;;31.50;99.90;;;;;;4991509;28;20201;-79
2022/06/30 12:21:28;;;;;;;0.10;0.00;;;30.70;99.90;;;;;;4991537;28;20191;-80
2022/06/30 12:23:54;;;;;;;0.10;0.00;;;31.00;99.90;;;;;;4993503;28;20193;-81
2022/06/30 12:26:20;;;;;;;0.10;0.00;;;31.50;99.90;;;;;;4998550;28;20558;-80
2022/06/30 12:28:52;;;;;;;0.10;0.00;;;31.80;99.90;;;;;;4992019;28;20444;-80
2022/06/30 12:31:31;;;;;;;0.03;0.00;;;31.40;99.90;;;;;;4988710;28;20200;-79
2022/06/30 12:33:58;;;;;;;0.10;0.00;;;31.80;99.90;;;;;;4989857;28;21036;-77
2022/06/30 12:36:29;;;;;;;0.10;0.00;;;31.60;99.90;;;;;;5001248;28;20451;-78
2022/06/30 12:38:54;;;;;;;0.10;0.00;;;30.90;99.90;;;;;;4985441;28;21179;-78
2022/06/30 12:41:22;;;;;;;0.10;0.00;;;30.90;99.90;;;;;;4978201;28;21227;-80
2022/06/30 12:43:49;;;;;;;0.10;0.00;;;30.70;99.90;;;;;;4994332;28;20189;-80
2022/06/30 12:46:19;;;;;;;0.07;0.00;;;31.10;99.90;;;;;;5002328;28;20455;-79
2022/06/30 12:48:48;;;;;;;0.07;0.00;;;30.50;99.90;;;;;;4994441;28;20440;-76
2022/06/30 12:51:32;;;;;;;0.10;0.00;;;30.50;99.90;;;;;;5014980;28;20786;-80
2022/06/30 12:54:03;;;;;;;0.07;0.00;;;30.50;99.40;;;;;;4990289;28;20435;-80
2022/06/30 12:56:29;;;;;;;0.10;0.00;;;30.30;99.60;;;;;;4978389;28;20474;-78
2022/06/30 12:59:03;;;;;;;0.10;0.00;;;30.10;99.30;;;;;;4992764;28;20514;-79
2022/06/30 13:01:31;;;;;;;0.07;0.00;;;30.40;98.70;;;;;;4985821;28;20440;-80
2022/06/30 13:03:58;;;;;;;0.07;0.00;;;31.00;98.60;;;;;;4987723;28;20457;-82
2022/06/30 13:06:25;;;;;;;0.00;0.00;;;30.40;97.40;;;;;;4988465;28;20443;-77